Terminal Aerodrome Forecast
Issued by NWS Tuscon, AZ

Home | Current Version | Previous Version | Text Only | Print | Product List | Glossary On
Versions: 1 2 3 4 5 6 7 8 9 10 11 12 13 14 15
545
FTUS45 KTWC 310540
TAFTUS
TAF
KTUS 310540Z 3106/0106 25007KT P6SM VCSH SCT070 BKN100 OVC180
     FM310800 14007KT P6SM BKN120 BKN200
     FM311000 VRB04KT P6SM FEW140 SCT250
     FM312000 31010KT P6SM SCT080=

USA.gov is the U.S. government's official web portal to all federal, state and local government web resources and services.